Enid, OK

11:37 AM CDT on July 28, 2014 (GMT -0500)
pr14 (KOKENID6) Elev 1316 ft | 36.41 °N, 97.93 °W | Change Station

Current weather conditions updated 31 seconds ago

Mostly Cloudy
Mostly Cloudy
79.0 °F
Feels Like 80 °F
N
3.0
Wind Variable Wind from NE
Gusts 5.0 mph

Today is forecast to be nearly the same temperature as yesterday.

Today
High -- | Low -- °F
--% Chance of Precip.
Yesterday
High -- | Low -- °F
Precip. -- in
6:34 AM 8:40 PM
Waxing Crescent, 3% visible
Pressure 30.27 in
Visibility 10.0 miles
Clouds Few 10000 ft
Scattered Clouds 15000 ft
Mostly Cloudy 20000 ft
Heat Index 80 °F
Dew Point 62 °F
Humidity 56%
Rainfall 0.00 in
Snow Depth Not available.
UV 4.5 out of 12
Pollen 6.00 out of 12
Air Quality Not available.
Flu Activity Not available.
METAR KWDG 281555Z 36005KT 10SM FEW100 SCT150 BKN200 27/16 A3027

More Conditions Fewer Conditions

Pressure 30.27 in
Visibility 10.0 miles
Clouds Few 10000 ft
Scattered Clouds 15000 ft
Mostly Cloudy 20000 ft
Heat Index 80 °F
Dew Point 62 °F
Humidity 56%
Rainfall 0.00 in
Snow Depth Not available.
UV 4.5 out of 12
Pollen 6.00 out of 12
Air Quality Not available.
Flu Activity Not available.
METAR KWDG 281555Z 36005KT 10SM FEW100 SCT150 BKN200 27/16 A3027

More Conditions Fewer Conditions

10-Day Weather Forecast

Almanac

Astronomy

Jul. 28, 2014 Rise Set
Actual Time 6:34 AM CDT 8:40 PM CDT
Civil Twilight 6:06 AM CDT 9:09 PM CDT
Nautical Twilight 5:31 AM CDT 9:44 PM CDT
Astronomical Twilight 4:53 AM CDT 10:22 PM CDT
Moon 8:13 AM CDT 9:28 PM CDT
Length of Visible Light 15h 03m
Length of Day
14h 05m
Tomorrow will be 1m 38s shorter.
Waxing Crescent, 3% of the Moon is Illuminated
Today
Waxing Crescent
Aug 3
First Quarter
Aug 10
Full
Aug 17
Last Quarter
Aug 25
New

Today's Extremes

State Highs State Lows

Community

WunderPhotos

Upload Photos

1,738,407 photos uploaded!

Nearby

Snow Depth

Station Depth Elevation
No new snow has been reported.

Earthquake Activity

City Distance Mag. Time & Date
Langston, Oklahoma 48 miles 3.2 9:03 AM CDT
2014-07-23
Langston, Oklahoma 46 miles 3.3 9:02 PM CDT
2014-07-22
Guthrie, Oklahoma 46 miles 2.5 7:25 PM CDT
2014-07-22
Helena, Oklahoma 25 miles 2.6 12:50 PM CDT
2014-07-22
Minimum magnitude displayed is 2.5.

Coastal Water Temperatures

Place Temperature
No Stations Reporting

Nearby Weather Stations

Station Location Temp. Heat Index Dew Point Humidity Wind Precip. Elev Updated Type
pr14, Enid, OK 79.0 °F 80 °F 62 °F 56% NE  at  3.0 mph 0.00 in / hr 1316 ft 11:36 AM CDT Normal
MesoWest PNDCRK , Pond Creek, OK 76 °F 74 °F - - North  at  - 0.00 in / hr 1068 ft 9:30 AM CDT MADIS
DDMET Ringwood, OK, Ringwood, OK 79 °F 80 °F 62 °F 56% North  at  - 0.00 in / hr 1376 ft 10:00 AM CDT MADIS

Show More Stations Show Fewer Stations